createdAt,value
2022-09-05T00:00:09.773Z,1.85
2022-09-05T00:02:49.864Z,1.55
2022-09-05T00:05:25.799Z,1.80
2022-09-05T00:08:17.126Z,1.60
2022-09-05T00:11:42.535Z,1.60
2022-09-05T00:15:15.188Z,1.67
2022-09-05T00:18:32.456Z,1.73
2022-09-05T00:24:28.796Z,1.50
2022-09-05T00:24:36.740Z,1.90
2022-09-05T00:27:14.896Z,1.60
2022-09-05T00:31:06.710Z,1.67
2022-09-05T00:33:23.693Z,1.50
2022-09-05T00:36:41.126Z,1.75
2022-09-05T00:39:21.494Z,1.58
2022-09-05T00:41:52.730Z,1.60
2022-09-05T00:44:25.285Z,1.50
2022-09-05T00:47:36.126Z,1.60
2022-09-05T00:50:18.073Z,1.60
2022-09-05T00:53:25.909Z,1.30
2022-09-05T00:56:19.191Z,1.70
2022-09-05T00:59:31.531Z,1.60
2022-09-05T01:02:16.039Z,1.55
2022-09-05T01:04:51.775Z,1.67
2022-09-05T01:07:49.828Z,1.70
2022-09-05T01:11:15.346Z,1.50
2022-09-05T01:14:29.948Z,2.13
2022-09-05T01:17:31.466Z,1.98
2022-09-05T01:20:34.405Z,1.50
2022-09-05T01:23:50.535Z,1.77
2022-09-05T01:26:59.588Z,1.50
2022-09-05T01:29:40.757Z,1.50
2022-09-05T01:32:10.552Z,1.45
2022-09-05T01:35:25.722Z,1.38
2022-09-05T01:38:37.679Z,1.55
2022-09-05T01:41:29.401Z,1.67
2022-09-05T01:44:19.612Z,1.55
2022-09-05T01:47:36.939Z,1.77
2022-09-05T01:50:58.146Z,1.35
2022-09-05T01:53:53.333Z,1.58
2022-09-05T01:56:39.190Z,1.42
2022-09-05T01:59:38.095Z,1.40
2022-09-05T02:02:27.199Z,1.40
2022-09-05T02:05:27.482Z,1.50
2022-09-05T02:08:50.705Z,1.60
2022-09-05T02:11:35.678Z,1.40
2022-09-05T02:14:33.628Z,1.45
2022-09-05T02:17:51.736Z,1.60
2022-09-05T02:20:31.088Z,1.77
2022-09-05T02:23:26.123Z,1.38
2022-09-05T02:26:35.999Z,1.40
2022-09-05T02:29:29.520Z,1.48
2022-09-05T02:32:11.858Z,1.63
2022-09-05T02:35:01.530Z,1.45
2022-09-05T02:42:19.570Z,1.63
2022-09-05T02:45:12.932Z,1.80
2022-09-05T02:45:14.212Z,1.45
2022-09-05T02:48:21.752Z,1.40
2022-09-05T02:55:19.905Z,1.55
2022-09-05T02:57:36.698Z,1.55
2022-09-05T02:58:06.291Z,1.50
2022-09-05T03:00:48.140Z,1.30
2022-09-05T03:03:34.993Z,1.50
2022-09-05T03:06:34.845Z,1.40
2022-09-05T03:09:47.081Z,1.50
2022-09-05T03:12:43.993Z,1.60
2022-09-05T03:16:04.625Z,1.25
2022-09-05T03:19:20.048Z,1.65
2022-09-05T03:22:17.437Z,1.30
2022-09-05T03:25:24.424Z,1.40
2022-09-05T03:28:10.317Z,1.40
2022-09-05T03:31:14.817Z,1.75
2022-09-05T03:34:29.454Z,1.60
2022-09-05T03:37:20.826Z,1.60
2022-09-05T03:40:36.479Z,1.45
2022-09-05T03:43:22.121Z,1.38
2022-09-05T03:46:29.436Z,1.88
2022-09-05T03:49:38.869Z,1.50
2022-09-05T03:57:16.678Z,1.60
2022-09-05T03:57:27.025Z,1.60
2022-09-05T03:58:57.092Z,1.65
2022-09-05T04:03:02.595Z,1.48
2022-09-05T04:08:07.035Z,1.50
2022-09-05T04:08:26.704Z,1.45
2022-09-05T04:10:59.936Z,1.60
2022-09-05T04:13:40.241Z,1.70
2022-09-05T04:16:22.044Z,1.40
2022-09-05T04:19:27.630Z,1.30
2022-09-05T04:22:16.891Z,1.83
2022-09-05T04:25:04.540Z,1.60
2022-09-05T04:28:03.970Z,1.90
2022-09-05T04:30:55.228Z,1.60
2022-09-05T04:33:45.349Z,1.60
2022-09-05T04:36:18.606Z,1.70
2022-09-05T04:38:46.142Z,1.52
2022-09-05T04:41:39.917Z,1.70
2022-09-05T04:44:22.096Z,1.60
2022-09-05T04:46:57.529Z,1.70
2022-09-05T04:49:40.475Z,1.80
2022-09-05T04:52:22.888Z,1.60
2022-09-05T04:55:16.667Z,1.73
2022-09-05T04:57:55.284Z,2.20
2022-09-05T05:06:03.208Z,1.83
2022-09-05T05:06:09.941Z,1.75
2022-09-05T05:07:20.333Z,1.98
2022-09-05T05:12:11.852Z,2.00
2022-09-05T05:17:59.562Z,1.95
2022-09-05T05:18:13.566Z,2.08
2022-09-05T05:19:29.219Z,1.77
2022-09-05T05:22:03.636Z,1.88
2022-09-05T05:24:40.738Z,2.00
2022-09-05T05:27:22.131Z,2.40
2022-09-05T05:30:11.071Z,2.38
2022-09-05T05:32:52.658Z,2.35
2022-09-05T05:35:31.163Z,2.10
2022-09-05T05:38:35.867Z,2.25
2022-09-05T05:41:23.523Z,2.13
2022-09-05T05:43:52.225Z,2.47
2022-09-05T05:46:42.502Z,2.13
2022-09-05T05:49:49.380Z,2.45
2022-09-05T05:52:57.086Z,1.98
2022-09-05T05:56:04.963Z,2.55
2022-09-05T05:59:09.630Z,2.53
2022-09-05T06:02:02.309Z,2.25
2022-09-05T06:05:06.343Z,2.13
2022-09-05T06:09:32.401Z,2.28
2022-09-05T06:14:55.798Z,2.80
2022-09-05T06:14:57.019Z,2.70
2022-09-05T06:17:56.205Z,2.33
2022-09-05T06:22:11.118Z,2.47
2022-09-05T06:24:24.237Z,2.38
2022-09-05T06:27:15.584Z,2.63
2022-09-05T06:29:58.781Z,2.60
2022-09-05T06:33:11.640Z,2.88
2022-09-05T06:36:07.109Z,2.92
2022-09-05T06:38:48.215Z,2.67
2022-09-05T06:41:40.487Z,2.90
2022-09-05T06:44:35.283Z,2.58
2022-09-05T06:47:24.332Z,2.63
2022-09-05T06:50:24.212Z,3.10
2022-09-05T06:53:36.543Z,2.90
2022-09-05T06:56:46.088Z,2.53
2022-09-05T06:59:41.235Z,2.80
2022-09-05T07:02:59.909Z,2.60
2022-09-05T07:05:50.238Z,2.63
2022-09-05T07:08:45.189Z,2.13
2022-09-05T07:11:41.287Z,2.40
2022-09-05T07:14:25.657Z,2.17
2022-09-05T07:17:14.408Z,2.20
2022-09-05T07:20:01.163Z,2.28
2022-09-05T07:23:50.670Z,2.20
2022-09-05T07:26:04.602Z,2.10
2022-09-05T07:28:33.190Z,2.13
2022-09-05T07:31:27.669Z,2.38
2022-09-05T07:34:21.342Z,2.00
2022-09-05T07:37:13.875Z,2.50
2022-09-05T07:40:11.220Z,2.30
2022-09-05T07:43:08.982Z,1.85
2022-09-05T07:46:02.113Z,1.90
2022-09-05T07:48:35.935Z,1.83
2022-09-05T07:56:56.540Z,2.03
2022-09-05T07:57:09.635Z,2.20
2022-09-05T07:57:34.971Z,1.80
2022-09-05T08:00:26.738Z,2.00
2022-09-05T08:03:08.386Z,2.10
2022-09-05T08:06:01.351Z,1.90
2022-09-05T08:08:39.902Z,2.40
2022-09-05T08:11:23.246Z,1.90
2022-09-05T08:14:45.299Z,1.85
2022-09-05T08:17:26.272Z,1.90
2022-09-05T08:20:15.503Z,2.00
2022-09-05T08:23:17.369Z,1.88
2022-09-05T08:26:00.746Z,1.90
2022-09-05T08:29:14.333Z,1.98
2022-09-05T08:31:52.490Z,1.95
2022-09-05T08:34:59.584Z,1.67
2022-09-05T08:37:28.586Z,2.10
2022-09-05T08:40:10.538Z,2.00
2022-09-05T08:44:39.427Z,1.73
2022-09-05T08:46:39.916Z,2.03
2022-09-05T08:49:46.196Z,2.05
2022-09-05T08:52:34.317Z,1.60
2022-09-05T08:55:50.528Z,1.95
2022-09-05T08:59:31.860Z,2.00
2022-09-05T09:02:32.887Z,2.15
2022-09-05T09:05:20.604Z,1.77
2022-09-05T09:08:38.930Z,2.30
2022-09-05T09:11:37.489Z,2.28
2022-09-05T09:15:00.850Z,2.42
2022-09-05T09:17:55.971Z,2.20
2022-09-05T09:20:45.185Z,2.60
2022-09-05T09:23:46.408Z,2.50
2022-09-05T09:26:17.060Z,2.50
2022-09-05T09:28:55.727Z,2.40
2022-09-05T09:31:54.578Z,2.42
2022-09-05T09:34:29.282Z,2.28
2022-09-05T09:37:02.187Z,1.80
2022-09-05T09:40:22.554Z,2.05
2022-09-05T09:43:27.458Z,2.00
2022-09-05T09:46:17.089Z,1.95
2022-09-05T09:48:47.055Z,2.58
2022-09-05T09:51:45.535Z,2.00
2022-09-05T09:55:02.368Z,2.00
2022-09-05T09:58:11.823Z,2.13
2022-09-05T10:01:35.920Z,1.70
2022-09-05T10:10:32.986Z,2.30
2022-09-05T10:10:47.947Z,2.30
2022-09-05T10:11:25.791Z,1.92
2022-09-05T10:14:29.091Z,2.00
2022-09-05T10:17:50.213Z,1.83
2022-09-05T10:21:16.366Z,2.08
2022-09-05T10:24:23.809Z,1.73
2022-09-05T10:27:20.015Z,1.70
2022-09-05T10:30:16.862Z,1.85
2022-09-05T10:35:15.101Z,1.77
2022-09-05T10:36:27.437Z,2.25
2022-09-05T10:39:27.906Z,1.92
2022-09-05T10:42:15.515Z,2.25
2022-09-05T10:44:56.770Z,1.80
2022-09-05T10:47:57.491Z,2.03
2022-09-05T10:51:17.222Z,1.70
2022-09-05T10:54:38.255Z,1.52
2022-09-05T10:57:28.212Z,1.73
2022-09-05T11:02:23.722Z,1.35
2022-09-05T11:03:30.235Z,1.90
2022-09-05T11:06:10.195Z,1.95
2022-09-05T11:09:06.323Z,1.75
2022-09-05T11:11:47.862Z,2.03
2022-09-05T11:14:44.294Z,2.47
2022-09-05T11:17:44.553Z,1.60
2022-09-05T11:20:45.757Z,2.00
2022-09-05T11:23:32.054Z,1.80
2022-09-05T11:26:09.705Z,1.83
2022-09-05T11:29:00.565Z,1.90
2022-09-05T11:32:49.826Z,2.05
2022-09-05T11:39:48.847Z,2.03
2022-09-05T11:40:05.888Z,1.85
2022-09-05T11:41:38.795Z,1.90
2022-09-05T11:44:39.500Z,1.63
2022-09-05T11:47:30.093Z,1.65
2022-09-05T11:50:09.273Z,1.48
2022-09-05T11:53:07.148Z,1.70
2022-09-05T11:55:53.023Z,1.52
2022-09-05T11:58:54.377Z,1.67
2022-09-05T12:01:48.080Z,1.65
2022-09-05T12:05:49.031Z,1.50
2022-09-05T12:08:30.762Z,1.33
2022-09-05T12:11:19.228Z,1.40
2022-09-05T12:14:00.982Z,1.50
2022-09-05T12:17:49.069Z,1.40
2022-09-05T12:20:43.173Z,1.70
2022-09-05T12:23:49.478Z,1.40
2022-09-05T12:27:42.035Z,1.30
2022-09-05T12:30:00.456Z,1.58
2022-09-05T12:34:53.950Z,1.65
2022-09-05T12:36:12.760Z,1.52
2022-09-05T12:41:35.732Z,1.50
2022-09-05T12:42:49.813Z,1.42
2022-09-05T12:45:46.038Z,1.15
2022-09-05T12:48:39.421Z,1.42
2022-09-05T12:51:46.222Z,1.23
2022-09-05T12:54:34.147Z,1.23
2022-09-05T13:02:50.329Z,1.30
2022-09-05T13:03:09.277Z,1.40
2022-09-05T13:03:29.842Z,1.40
2022-09-05T13:06:25.641Z,1.60
2022-09-05T13:09:03.710Z,1.40
2022-09-05T13:14:57.929Z,1.40
2022-09-05T13:15:07.511Z,1.40
2022-09-05T13:17:54.267Z,1.50
2022-09-05T13:20:41.186Z,1.45
2022-09-05T13:23:32.925Z,1.75
2022-09-05T13:26:32.488Z,1.55
2022-09-05T13:29:12.894Z,1.55
2022-09-05T13:37:58.444Z,1.48
2022-09-05T13:38:00.489Z,1.48
2022-09-05T13:38:11.856Z,1.77
2022-09-05T13:40:46.549Z,1.48
2022-09-05T13:43:38.287Z,1.20
2022-09-05T13:46:12.442Z,1.60
2022-09-05T13:49:25.275Z,1.75
2022-09-05T13:52:38.115Z,1.50
2022-09-05T13:55:39.946Z,1.30
2022-09-05T13:58:56.563Z,1.45
2022-09-05T14:01:54.588Z,1.42
2022-09-05T14:05:08.351Z,1.30
2022-09-05T14:08:16.783Z,1.27
2022-09-05T14:10:49.681Z,1.35
2022-09-05T14:13:39.955Z,1.23
2022-09-05T14:16:19.509Z,1.58
2022-09-05T14:19:08.227Z,1.38
2022-09-05T14:21:40.879Z,1.40
2022-09-05T14:24:27.806Z,1.42
2022-09-05T14:27:30.336Z,1.35
2022-09-05T14:30:02.559Z,1.30
2022-09-05T14:37:39.989Z,1.40
2022-09-05T14:37:48.807Z,1.20
2022-09-05T14:40:26.574Z,1.00
2022-09-05T14:43:31.298Z,1.20
2022-09-05T14:46:38.777Z,1.30
2022-09-05T14:49:30.280Z,1.30
2022-09-05T14:51:58.464Z,1.15
2022-09-05T15:02:39.358Z,1.20
2022-09-05T15:02:50.742Z,1.50
2022-09-05T15:03:12.509Z,1.42
2022-09-05T15:05:50.112Z,1.10
2022-09-05T15:09:23.777Z,1.60
2022-09-05T15:12:14.602Z,1.20
2022-09-05T15:14:12.029Z,1.38
2022-09-05T15:16:45.737Z,1.30
2022-09-05T15:20:04.915Z,1.17
2022-09-05T15:22:41.991Z,1.30
2022-09-05T15:25:21.758Z,1.17
2022-09-05T15:27:49.635Z,1.40
2022-09-05T15:30:35.935Z,1.80
2022-09-05T15:33:30.703Z,1.58
2022-09-05T15:36:00.352Z,1.25
2022-09-05T15:38:55.318Z,1.40
2022-09-05T15:41:29.398Z,1.75
2022-09-05T15:44:28.924Z,1.40
2022-09-05T15:47:10.442Z,1.52
2022-09-05T15:49:53.644Z,1.60
2022-09-05T15:52:25.039Z,1.60
2022-09-05T15:55:02.073Z,1.33
2022-09-05T15:57:39.620Z,1.42
2022-09-05T16:00:12.956Z,1.30
2022-09-05T16:02:50.066Z,1.50
2022-09-05T16:10:33.693Z,1.20
2022-09-05T16:10:57.945Z,1.38
2022-09-05T16:12:09.066Z,1.50
2022-09-05T16:14:39.387Z,1.50
2022-09-05T16:23:25.483Z,1.80
2022-09-05T16:23:30.071Z,1.40
2022-09-05T16:23:51.283Z,1.30
2022-09-05T16:26:28.457Z,1.50
2022-09-05T16:29:00.545Z,1.50
2022-09-05T16:31:48.328Z,1.30
2022-09-05T16:34:47.094Z,1.25
2022-09-05T16:37:47.513Z,1.50
2022-09-05T16:40:34.524Z,1.08
2022-09-05T16:43:32.067Z,1.20
2022-09-05T16:46:27.172Z,1.40
2022-09-05T16:49:42.229Z,1.50
2022-09-05T16:52:17.293Z,1.40
2022-09-05T16:54:58.184Z,1.50
2022-09-05T16:57:36.780Z,1.30
2022-09-05T17:00:10.537Z,1.40
2022-09-05T17:02:56.988Z,1.20
2022-09-05T17:05:46.225Z,1.30
2022-09-05T17:08:13.307Z,1.40
2022-09-05T17:11:03.569Z,1.30
2022-09-05T17:13:56.066Z,1.60
2022-09-05T17:16:56.364Z,1.77
2022-09-05T17:19:33.848Z,1.45
2022-09-05T17:26:20.297Z,2.08
2022-09-05T17:29:25.566Z,1.90
2022-09-05T17:29:28.744Z,2.15
2022-09-05T17:31:59.426Z,1.90
2022-09-05T17:35:16.472Z,2.05
2022-09-05T17:38:29.056Z,1.92
2022-09-05T17:41:35.471Z,2.25
2022-09-05T17:44:19.398Z,2.38
2022-09-05T17:47:05.334Z,2.30
2022-09-05T17:49:47.232Z,2.10
2022-09-05T17:52:16.637Z,2.10
2022-09-05T17:54:49.648Z,2.25
2022-09-05T17:57:33.355Z,2.05
2022-09-05T18:00:22.417Z,2.28
2022-09-05T18:02:56.925Z,2.40
2022-09-05T18:05:54.858Z,2.13
2022-09-05T18:08:47.838Z,2.08
2022-09-05T18:11:18.061Z,2.55
2022-09-05T18:14:25.302Z,2.50
2022-09-05T18:17:37.402Z,2.20
2022-09-05T18:19:46.634Z,2.55
2022-09-05T18:22:33.666Z,2.55
2022-09-05T18:28:28.188Z,2.30
2022-09-05T18:31:18.996Z,2.25
2022-09-05T18:34:15.705Z,2.10
2022-09-05T18:36:52.847Z,2.30
2022-09-05T18:39:37.706Z,2.20
2022-09-05T18:42:26.081Z,1.80
2022-09-05T18:45:28.460Z,1.98
2022-09-05T18:48:04.628Z,1.80
2022-09-05T18:50:42.844Z,2.17
2022-09-05T18:53:13.418Z,2.53
2022-09-05T18:56:12.327Z,2.45
2022-09-05T18:59:10.318Z,2.10
2022-09-05T19:01:43.769Z,1.85
2022-09-05T19:04:40.501Z,1.80
2022-09-05T19:07:18.911Z,2.08
2022-09-05T19:10:35.460Z,2.03
2022-09-05T19:13:19.504Z,1.80
2022-09-05T19:16:05.213Z,2.10
2022-09-05T19:19:19.337Z,2.08
2022-09-05T19:22:33.305Z,2.17
2022-09-05T19:24:46.069Z,2.38
2022-09-05T19:27:47.270Z,2.22
2022-09-05T19:37:07.117Z,2.30
2022-09-05T19:37:10.874Z,2.20
2022-09-05T19:37:14.268Z,1.88
2022-09-05T19:40:46.715Z,2.13
2022-09-05T19:47:34.150Z,2.22
2022-09-05T19:47:43.033Z,1.63
2022-09-05T19:50:29.128Z,1.98
2022-09-05T19:53:07.049Z,1.98
2022-09-05T19:55:38.408Z,1.92
2022-09-05T19:58:19.041Z,2.03
2022-09-05T20:01:00.809Z,2.28
2022-09-05T20:03:38.621Z,1.85
2022-09-05T20:06:29.991Z,2.03
2022-09-05T20:09:18.277Z,2.13
2022-09-05T20:11:52.612Z,1.73
2022-09-05T20:14:37.970Z,1.90
2022-09-05T20:17:32.126Z,1.90
2022-09-05T20:20:15.278Z,1.80
2022-09-05T20:22:50.442Z,1.98
2022-09-05T20:25:47.136Z,1.60
2022-09-05T20:28:30.804Z,2.20
2022-09-05T20:31:08.409Z,2.05
2022-09-05T20:34:03.520Z,1.88
2022-09-05T20:43:30.177Z,2.03
2022-09-05T20:43:32.739Z,1.88
2022-09-05T20:43:35.496Z,1.85
2022-09-05T20:46:38.313Z,1.65
2022-09-05T20:54:04.692Z,2.03
2022-09-05T20:54:19.244Z,2.15
2022-09-05T20:54:34.710Z,1.90
2022-09-05T20:57:18.985Z,2.00
2022-09-05T20:59:47.364Z,1.95
2022-09-05T21:02:30.058Z,2.00
2022-09-05T21:05:06.750Z,2.03
2022-09-05T21:08:06.831Z,2.00
2022-09-05T21:10:55.125Z,1.75
2022-09-05T21:13:37.634Z,2.20
2022-09-05T21:16:51.992Z,1.63
2022-09-05T21:19:37.362Z,2.10
2022-09-05T21:22:20.260Z,1.75
2022-09-05T21:24:47.704Z,1.88
2022-09-05T21:27:24.886Z,1.85
2022-09-05T21:29:58.641Z,1.90
2022-09-05T21:32:38.235Z,1.98
2022-09-05T21:35:34.171Z,2.10
2022-09-05T21:37:58.684Z,2.30
2022-09-05T21:40:25.811Z,2.00
2022-09-05T21:47:01.494Z,1.95
2022-09-05T21:47:46.514Z,2.05
2022-09-05T21:48:28.187Z,1.98
2022-09-05T21:51:07.459Z,2.30
2022-09-05T21:58:45.651Z,2.10
2022-09-05T21:59:21.158Z,2.15
2022-09-05T21:59:46.520Z,2.17
2022-09-05T22:02:17.236Z,2.00
2022-09-05T22:04:45.215Z,1.67
2022-09-05T22:07:16.360Z,2.03
2022-09-05T22:09:55.052Z,2.17
2022-09-05T22:12:30.829Z,1.88
2022-09-05T22:15:12.808Z,1.98
2022-09-05T22:17:47.104Z,1.77
2022-09-05T22:20:20.414Z,2.03
2022-09-05T22:22:56.417Z,1.77
2022-09-05T22:25:32.855Z,1.88
2022-09-05T22:28:15.855Z,2.00
2022-09-05T22:30:43.714Z,2.15
2022-09-05T22:33:12.044Z,1.92
2022-09-05T22:35:40.457Z,2.17
2022-09-05T22:38:16.492Z,1.90
2022-09-05T22:40:47.828Z,1.80
2022-09-05T22:43:16.301Z,1.90
2022-09-05T22:45:43.406Z,1.92
2022-09-05T22:48:13.726Z,2.08
2022-09-05T22:50:42.758Z,2.00
2022-09-05T22:53:10.469Z,1.80
2022-09-05T22:55:41.210Z,1.95
2022-09-05T22:58:11.575Z,2.10
2022-09-05T23:00:38.558Z,1.92
2022-09-05T23:03:06.919Z,1.90
2022-09-05T23:05:34.454Z,2.05
2022-09-05T23:08:03.779Z,1.80
2022-09-05T23:10:31.784Z,2.10
2022-09-05T23:13:03.891Z,1.98
2022-09-05T23:15:30.984Z,1.90
2022-09-05T23:18:00.379Z,2.00
2022-09-05T23:20:30.527Z,1.70
2022-09-05T23:23:02.840Z,1.90
2022-09-05T23:25:29.784Z,1.88
2022-09-05T23:27:56.656Z,2.05
2022-09-05T23:30:23.598Z,1.55
2022-09-05T23:32:52.102Z,2.05
2022-09-05T23:35:19.641Z,2.00
2022-09-05T23:37:48.304Z,2.17
2022-09-05T23:40:18.408Z,1.80
2022-09-05T23:42:56.362Z,1.90
2022-09-05T23:45:25.096Z,2.00
2022-09-05T23:47:52.512Z,2.05
2022-09-05T23:50:20.774Z,1.88
2022-09-05T23:52:48.052Z,1.80
2022-09-05T23:55:18.733Z,1.95
2022-09-05T23:57:46.441Z,1.67
